createdAt,value
2022-11-15T00:03:16.701Z,11.60
2022-11-15T00:08:37.568Z,11.80
2022-11-15T00:13:59.440Z,11.80
2022-11-15T00:19:20.555Z,11.90
2022-11-15T00:24:41.785Z,12.00
2022-11-15T00:30:02.971Z,12.10
2022-11-15T00:35:24.444Z,12.20
2022-11-15T00:40:45.579Z,12.50
2022-11-15T00:46:06.840Z,12.60
2022-11-15T00:51:27.772Z,12.80
2022-11-15T00:56:48.664Z,12.90
2022-11-15T01:02:09.744Z,13.00
2022-11-15T01:07:30.600Z,13.10
2022-11-15T01:12:51.517Z,13.30
2022-11-15T01:18:12.413Z,13.30
2022-11-15T01:23:33.280Z,13.10
2022-11-15T01:28:55.005Z,13.10
2022-11-15T01:34:16.055Z,13.10
2022-11-15T01:39:36.683Z,13.10
2022-11-15T01:44:57.453Z,13.10
2022-11-15T01:50:25.527Z,13.20
2022-11-15T01:55:46.239Z,13.30
2022-11-15T02:01:07.491Z,13.40
2022-11-15T02:06:28.472Z,13.50
2022-11-15T02:11:52.827Z,13.50
2022-11-15T02:17:35.000Z,13.60
2022-11-15T02:23:20.117Z,13.50
2022-11-15T02:29:01.825Z,13.50
2022-11-15T02:34:54.039Z,13.50
2022-11-15T02:40:26.829Z,13.40
2022-11-15T02:45:53.493Z,13.30
2022-11-15T02:51:15.589Z,13.30
2022-11-15T02:56:36.853Z,13.40
2022-11-15T03:02:28.862Z,13.40
2022-11-15T03:07:53.979Z,13.40
2022-11-15T03:13:30.303Z,13.40
2022-11-15T03:18:57.246Z,13.30
2022-11-15T03:24:25.685Z,13.20
2022-11-15T03:29:56.033Z,13.30
2022-11-15T03:35:21.385Z,13.30
2022-11-15T03:40:48.635Z,13.40
2022-11-15T03:46:17.406Z,13.40
2022-11-15T03:51:38.284Z,13.40
2022-11-15T03:56:59.220Z,13.40
2022-11-15T04:02:20.446Z,13.40
2022-11-15T04:07:41.376Z,13.30
2022-11-15T04:13:03.828Z,13.20
2022-11-15T04:18:25.264Z,13.30
2022-11-15T04:24:04.872Z,13.30
2022-11-15T04:29:35.636Z,13.50
2022-11-15T04:34:56.297Z,13.40
2022-11-15T04:40:17.272Z,13.50
2022-11-15T04:45:37.881Z,13.60
2022-11-15T04:50:58.881Z,13.60
2022-11-15T04:56:20.117Z,13.60
2022-11-15T05:01:44.879Z,13.60
2022-11-15T05:07:07.164Z,13.50
2022-11-15T05:12:28.262Z,13.40
2022-11-15T05:17:48.996Z,13.30
2022-11-15T05:23:09.624Z,13.30
2022-11-15T05:28:31.362Z,13.30
2022-11-15T05:33:54.387Z,13.30
2022-11-15T05:39:15.275Z,13.30
2022-11-15T05:44:38.314Z,13.40
2022-11-15T05:49:59.565Z,13.30
2022-11-15T05:55:21.141Z,13.10
2022-11-15T06:06:05.260Z,12.50
2022-11-15T06:11:26.396Z,12.50
2022-11-15T06:16:47.897Z,12.60
2022-11-15T06:22:10.526Z,12.50
2022-11-15T06:27:31.384Z,12.30
2022-11-15T06:32:52.570Z,12.10
2022-11-15T06:38:13.633Z,12.10
2022-11-15T06:43:35.793Z,12.10
2022-11-15T06:48:57.070Z,12.20
2022-11-15T06:54:17.757Z,12.10
2022-11-15T06:59:40.582Z,12.20
2022-11-15T07:05:01.758Z,12.20
2022-11-15T07:10:25.714Z,12.30
2022-11-15T07:15:46.716Z,12.20
2022-11-15T07:21:10.457Z,12.20
2022-11-15T07:26:31.255Z,12.20
2022-11-15T07:31:52.611Z,12.20
2022-11-15T07:37:13.670Z,12.30
2022-11-15T07:42:53.414Z,12.40
2022-11-15T07:48:14.327Z,12.50
2022-11-15T07:53:35.254Z,12.40
2022-11-15T07:58:56.459Z,12.20
2022-11-15T08:04:17.142Z,12.20
2022-11-15T08:09:38.288Z,12.10
2022-11-15T08:14:59.061Z,12.00
2022-11-15T08:20:20.566Z,12.10
2022-11-15T08:25:41.770Z,12.10
2022-11-15T08:31:04.473Z,11.70
2022-11-15T08:36:32.141Z,11.90
2022-11-15T08:41:58.608Z,11.90
2022-11-15T08:47:19.388Z,12.00
2022-11-15T08:52:40.849Z,11.90
2022-11-15T08:58:01.957Z,12.10
2022-11-15T09:03:22.957Z,12.10
2022-11-15T09:08:52.192Z,12.30
2022-11-15T09:14:14.160Z,12.50
2022-11-15T09:19:35.486Z,12.60
2022-11-15T09:24:56.680Z,12.60
2022-11-15T09:30:17.592Z,12.50
2022-11-15T09:35:38.442Z,12.60
2022-11-15T09:41:14.167Z,12.60
2022-11-15T09:46:47.449Z,12.60
2022-11-15T09:52:11.911Z,12.70
2022-11-15T09:57:30.306Z,12.90
2022-11-15T10:02:59.980Z,12.80
2022-11-15T10:08:06.403Z,12.80
2022-11-15T10:13:42.177Z,12.80
2022-11-15T10:19:09.174Z,13.00
2022-11-15T10:24:13.880Z,13.00
2022-11-15T10:29:26.433Z,13.10
2022-11-15T10:34:29.319Z,13.30
2022-11-15T10:39:31.913Z,13.30
2022-11-15T10:44:43.178Z,13.40
2022-11-15T10:50:04.022Z,13.50
2022-11-15T10:55:25.081Z,13.50
2022-11-15T11:00:30.764Z,13.50
2022-11-15T11:05:41.642Z,13.60
2022-11-15T11:11:02.584Z,13.70
2022-11-15T11:16:14.872Z,13.70
2022-11-15T11:21:46.656Z,13.90
2022-11-15T11:27:13.349Z,14.10
2022-11-15T11:32:33.720Z,14.10
2022-11-15T11:37:54.297Z,14.10
2022-11-15T11:43:17.922Z,14.30
2022-11-15T11:48:43.655Z,16.00
2022-11-15T11:53:57.306Z,14.30
2022-11-15T11:59:08.753Z,14.50
2022-11-15T12:04:15.479Z,15.20
2022-11-15T12:09:42.273Z,14.30
2022-11-15T12:14:52.193Z,14.40
2022-11-15T12:19:58.745Z,14.30
2022-11-15T12:25:15.786Z,14.70
2022-11-15T12:30:22.978Z,15.10
2022-11-15T12:35:41.803Z,15.10
2022-11-15T12:41:20.410Z,14.90
2022-11-15T12:46:25.698Z,14.70
2022-11-15T12:51:43.584Z,14.70
2022-11-15T12:56:45.989Z,14.80
2022-11-15T13:01:48.672Z,15.10
2022-11-15T13:07:04.452Z,15.20
2022-11-15T13:12:28.800Z,15.10
2022-11-15T13:17:37.023Z,15.20
2022-11-15T13:22:53.166Z,15.30
2022-11-15T13:27:59.586Z,15.40
2022-11-15T13:33:15.633Z,15.90
2022-11-15T13:38:39.176Z,15.20
2022-11-15T13:43:41.646Z,15.10
2022-11-15T13:48:45.744Z,15.20
2022-11-15T13:54:03.871Z,15.20
2022-11-15T13:59:36.677Z,15.20
2022-11-15T14:04:45.969Z,15.20
2022-11-15T14:09:48.831Z,15.10
2022-11-15T14:14:52.038Z,15.30
2022-11-15T14:19:54.590Z,15.10
2022-11-15T14:25:14.993Z,15.00
2022-11-15T14:30:18.652Z,15.20
2022-11-15T14:35:23.323Z,15.40
2022-11-15T14:40:25.919Z,15.40
2022-11-15T14:45:28.925Z,15.40
2022-11-15T14:50:33.985Z,15.50
2022-11-15T14:55:37.137Z,15.40
2022-11-15T15:00:41.640Z,15.40
2022-11-15T15:05:44.980Z,15.30
2022-11-15T15:10:47.578Z,15.20
2022-11-15T15:15:51.498Z,15.00
2022-11-15T15:21:04.138Z,15.00
2022-11-15T15:26:06.420Z,14.80
2022-11-15T15:31:10.648Z,14.60
2022-11-15T15:36:14.958Z,14.30
2022-11-15T15:41:18.001Z,13.90
2022-11-15T15:46:21.187Z,13.90
2022-11-15T15:51:23.529Z,13.80
2022-11-15T15:56:25.869Z,13.80
2022-11-15T16:01:28.313Z,13.90
2022-11-15T16:06:45.133Z,13.90
2022-11-15T16:11:47.964Z,14.10
2022-11-15T16:16:50.262Z,14.10
2022-11-15T16:21:55.716Z,14.10
2022-11-15T16:26:58.630Z,14.30
2022-11-15T16:32:00.925Z,14.60
2022-11-15T16:37:03.448Z,14.70
2022-11-15T16:42:05.824Z,14.60
2022-11-15T16:47:20.020Z,14.60
2022-11-15T16:52:22.557Z,14.50
2022-11-15T16:57:24.835Z,14.50
2022-11-15T17:02:27.079Z,14.60
2022-11-15T17:07:29.708Z,14.20
2022-11-15T17:12:32.053Z,13.90
2022-11-15T17:17:34.623Z,14.00
2022-11-15T17:22:37.823Z,13.80
2022-11-15T17:27:40.480Z,14.10
2022-11-15T17:32:43.551Z,14.00
2022-11-15T17:37:47.150Z,13.80
2022-11-15T17:42:49.596Z,14.00
2022-11-15T17:47:53.703Z,13.90
2022-11-15T17:52:57.250Z,13.60
2022-11-15T17:57:59.557Z,13.90
2022-11-15T18:03:01.809Z,13.90
2022-11-15T18:08:04.596Z,13.70
2022-11-15T18:13:06.924Z,13.60
2022-11-15T18:18:09.161Z,13.50
2022-11-15T18:23:11.527Z,13.40
2022-11-15T18:28:13.891Z,13.40
2022-11-15T18:33:16.736Z,13.30
2022-11-15T18:38:18.993Z,13.10
2022-11-15T18:43:21.309Z,12.90
2022-11-15T18:48:23.561Z,13.20
2022-11-15T18:53:25.807Z,13.30
2022-11-15T18:58:32.492Z,13.30
2022-11-15T19:03:36.573Z,13.40
2022-11-15T19:08:40.628Z,13.40
2022-11-15T19:13:44.025Z,13.20
2022-11-15T19:18:46.332Z,13.10
2022-11-15T19:23:48.656Z,13.30
2022-11-15T19:28:52.867Z,13.50
2022-11-15T19:33:56.345Z,13.70
2022-11-15T19:39:00.736Z,13.70
2022-11-15T19:44:03.289Z,13.40
2022-11-15T19:49:07.776Z,13.40
2022-11-15T19:54:10.382Z,13.60
2022-11-15T19:59:13.496Z,13.40
2022-11-15T20:04:15.842Z,13.60
2022-11-15T20:09:18.183Z,13.60
2022-11-15T20:14:20.495Z,13.50
2022-11-15T20:19:22.884Z,13.30
2022-11-15T20:24:26.333Z,13.30
2022-11-15T20:29:28.588Z,13.30
2022-11-15T20:34:31.389Z,13.50
2022-11-15T20:39:34.852Z,13.60
2022-11-15T20:44:37.260Z,13.60
2022-11-15T20:49:39.616Z,13.50
2022-11-15T20:54:43.120Z,13.40
2022-11-15T20:59:47.497Z,13.60
2022-11-15T21:04:49.916Z,13.40
2022-11-15T21:10:11.912Z,13.40
2022-11-15T21:15:15.005Z,13.50
2022-11-15T21:20:17.646Z,13.20
2022-11-15T21:25:19.920Z,13.00
2022-11-15T21:30:22.815Z,12.50
2022-11-15T21:35:25.270Z,12.40
2022-11-15T21:40:27.548Z,12.60
2022-11-15T21:45:29.988Z,12.60
2022-11-15T21:50:32.338Z,12.80
2022-11-15T21:55:34.648Z,13.00
2022-11-15T22:00:55.383Z,12.90
2022-11-15T22:05:57.787Z,13.10
2022-11-15T22:11:00.335Z,13.00
2022-11-15T22:16:02.946Z,12.90
2022-11-15T22:21:11.853Z,13.10
2022-11-15T22:26:20.790Z,13.20
2022-11-15T22:31:26.995Z,13.20
2022-11-15T22:36:42.524Z,12.90
2022-11-15T22:41:51.653Z,12.90
2022-11-15T22:46:53.940Z,12.80
2022-11-15T22:51:56.183Z,13.00
2022-11-15T22:56:58.496Z,13.10
2022-11-15T23:02:00.776Z,13.00
2022-11-15T23:07:03.236Z,12.70
2022-11-15T23:12:24.875Z,12.70
2022-11-15T23:17:27.227Z,12.70
2022-11-15T23:22:48.262Z,12.60
2022-11-15T23:27:50.785Z,12.80
2022-11-15T23:33:11.933Z,12.70
2022-11-15T23:38:14.405Z,12.70
2022-11-15T23:43:16.941Z,12.80
2022-11-15T23:48:19.369Z,12.70
2022-11-15T23:53:21.870Z,12.70
2022-11-15T23:58:24.457Z,12.80
